createdAt,value
2019-05-10T00:00:17.861Z,6.92
2019-05-10T00:03:05.561Z,6.80
2019-05-10T00:05:53.985Z,7.67
2019-05-10T00:08:41.389Z,8.00
2019-05-10T00:11:33.212Z,7.45
2019-05-10T00:14:26.916Z,9.17
2019-05-10T00:17:01.400Z,7.97
2019-05-10T00:19:31.140Z,8.10
2019-05-10T00:22:00.884Z,8.47
2019-05-10T00:24:30.627Z,8.40
2019-05-10T00:27:00.267Z,8.00
2019-05-10T00:29:30.900Z,8.17
2019-05-10T00:32:00.648Z,7.47
2019-05-10T00:34:30.373Z,8.70
2019-05-10T00:37:00.108Z,8.17
2019-05-10T00:39:29.764Z,7.53
2019-05-10T00:41:59.507Z,7.30
2019-05-10T00:44:29.177Z,7.70
2019-05-10T00:46:58.908Z,8.03
2019-05-10T00:49:28.590Z,6.77
2019-05-10T00:51:58.241Z,6.97
2019-05-10T00:54:27.960Z,7.13
2019-05-10T00:56:57.758Z,6.17
2019-05-10T00:59:27.622Z,5.78
2019-05-10T01:01:57.488Z,6.20
2019-05-10T01:04:27.124Z,5.53
2019-05-10T01:06:57.012Z,6.58
2019-05-10T01:09:26.703Z,5.35
2019-05-10T01:11:56.359Z,6.15
2019-05-10T01:14:26.976Z,5.62
2019-05-10T01:16:57.770Z,5.80
2019-05-10T01:19:27.447Z,5.60
2019-05-10T01:21:57.099Z,5.47
2019-05-10T01:24:26.820Z,5.43
2019-05-10T01:26:56.505Z,5.87
2019-05-10T01:29:27.223Z,5.72
2019-05-10T01:31:56.952Z,5.80
2019-05-10T01:34:27.593Z,5.00
2019-05-10T01:36:57.212Z,5.47
2019-05-10T01:39:26.903Z,5.27
2019-05-10T01:41:56.541Z,6.30
2019-05-10T01:44:26.162Z,5.67
2019-05-10T01:46:55.833Z,6.12
2019-05-10T01:49:26.501Z,5.58
2019-05-10T01:51:56.111Z,6.15
2019-05-10T01:54:26.725Z,6.17
2019-05-10T01:56:56.378Z,5.70
2019-05-10T01:59:26.013Z,6.17
2019-05-10T02:01:55.687Z,5.53
2019-05-10T02:04:25.462Z,6.08
2019-05-10T02:06:55.138Z,6.20
2019-05-10T02:09:24.790Z,6.40
2019-05-10T02:11:54.510Z,6.20
2019-05-10T02:14:25.197Z,5.40
2019-05-10T02:16:54.876Z,6.97
2019-05-10T02:19:24.530Z,6.12
2019-05-10T02:21:54.165Z,6.12
2019-05-10T02:24:23.834Z,6.28
2019-05-10T02:26:53.506Z,6.30
2019-05-10T02:29:24.204Z,5.72
2019-05-10T02:31:53.973Z,6.25
2019-05-10T02:34:24.780Z,6.25
2019-05-10T02:36:54.608Z,5.72
2019-05-10T02:39:24.290Z,6.53
2019-05-10T02:41:53.982Z,6.20
2019-05-10T02:44:23.999Z,6.05
2019-05-10T02:46:53.776Z,6.37
2019-05-10T02:49:23.554Z,5.93
2019-05-10T02:51:53.297Z,5.93
2019-05-10T02:54:23.022Z,5.60
2019-05-10T02:56:53.673Z,6.22
2019-05-10T02:59:23.830Z,6.10
2019-05-10T03:01:56.868Z,6.17
2019-05-10T03:04:28.301Z,6.17
2019-05-10T03:07:06.134Z,6.37
2019-05-10T03:09:35.871Z,6.35
2019-05-10T03:12:25.274Z,5.75
2019-05-10T03:14:57.006Z,6.47
2019-05-10T03:17:28.038Z,5.78
2019-05-10T03:19:59.493Z,5.75
2019-05-10T03:22:33.338Z,6.23
2019-05-10T03:25:03.018Z,5.60
2019-05-10T03:27:33.350Z,5.83
2019-05-10T03:30:03.130Z,6.30
2019-05-10T03:32:33.900Z,6.83
2019-05-10T03:35:04.048Z,6.57
2019-05-10T03:37:34.198Z,5.63
2019-05-10T03:40:06.893Z,6.20
2019-05-10T03:42:38.638Z,6.47
2019-05-10T03:45:08.736Z,6.63
2019-05-10T03:47:38.442Z,7.30
2019-05-10T03:50:09.585Z,5.85
2019-05-10T03:52:40.856Z,6.43
2019-05-10T03:55:10.651Z,5.97
2019-05-10T03:57:40.549Z,6.30
2019-05-10T04:00:10.679Z,6.47
2019-05-10T04:02:40.385Z,5.87
2019-05-10T04:05:10.573Z,5.37
2019-05-10T04:07:41.311Z,6.43
2019-05-10T04:10:12.207Z,6.27
2019-05-10T04:12:42.039Z,6.17
2019-05-10T04:15:12.004Z,5.80
2019-05-10T04:17:41.713Z,5.67
2019-05-10T04:20:11.723Z,5.58
2019-05-10T04:22:41.337Z,5.45
2019-05-10T04:25:11.734Z,6.00
2019-05-10T04:27:41.410Z,5.90
2019-05-10T04:30:11.451Z,6.00
2019-05-10T04:32:41.129Z,6.00
2019-05-10T04:35:11.022Z,5.53
2019-05-10T04:37:40.751Z,5.62
2019-05-10T04:40:10.945Z,5.87
2019-05-10T04:42:40.733Z,5.87
2019-05-10T04:45:22.228Z,5.90
2019-05-10T04:47:53.016Z,6.00
2019-05-10T04:50:22.817Z,5.63
2019-05-10T04:52:52.601Z,6.30
2019-05-10T04:55:22.288Z,6.17
2019-05-10T04:57:52.084Z,7.27
2019-05-10T05:00:21.939Z,6.13
2019-05-10T05:02:51.716Z,7.10
2019-05-10T05:05:21.486Z,7.45
2019-05-10T05:07:52.189Z,6.85
2019-05-10T05:10:21.822Z,7.85
2019-05-10T05:12:51.622Z,8.47
2019-05-10T05:15:21.349Z,8.90
2019-05-10T05:17:51.301Z,8.28
2019-05-10T05:20:21.072Z,8.85
2019-05-10T05:22:50.785Z,9.65
2019-05-10T05:25:22.193Z,9.05
2019-05-10T05:28:06.529Z,9.23
2019-05-10T05:30:23.769Z,9.90
2019-05-10T05:32:56.771Z,10.23
2019-05-10T05:35:25.427Z,10.43
2019-05-10T05:37:55.571Z,9.58
2019-05-10T05:40:25.193Z,9.03
2019-05-10T05:42:54.989Z,8.95
2019-05-10T05:45:28.305Z,8.68
2019-05-10T05:47:56.188Z,9.25
2019-05-10T05:50:25.905Z,8.80
2019-05-10T05:52:55.633Z,8.55
2019-05-10T05:55:30.688Z,9.40
2019-05-10T05:57:59.326Z,9.05
2019-05-10T06:00:28.248Z,9.00
2019-05-10T06:02:57.909Z,8.75
2019-05-10T06:05:34.285Z,9.10
2019-05-10T06:07:59.169Z,8.58
2019-05-10T06:10:28.789Z,9.28
2019-05-10T06:12:58.513Z,9.40
2019-05-10T06:15:29.249Z,10.23
2019-05-10T06:18:03.708Z,8.48
2019-05-10T06:20:31.037Z,10.48
2019-05-10T06:23:07.781Z,10.48
2019-05-10T06:25:39.429Z,10.43
2019-05-10T06:28:03.912Z,10.32
2019-05-10T06:30:33.629Z,11.80
2019-05-10T06:33:12.078Z,10.82
2019-05-10T06:35:34.860Z,10.55
2019-05-10T06:38:04.979Z,9.98
2019-05-10T06:40:43.911Z,11.65
2019-05-10T06:43:07.115Z,11.22
2019-05-10T06:45:37.509Z,11.48
2019-05-10T06:48:07.218Z,11.85
2019-05-10T06:50:37.005Z,11.68
2019-05-10T06:53:09.619Z,12.68
2019-05-10T06:55:38.000Z,13.40
2019-05-10T06:58:07.712Z,13.43
2019-05-10T07:00:37.914Z,13.68
2019-05-10T07:03:07.993Z,14.40
2019-05-10T07:05:37.794Z,15.40
2019-05-10T07:08:15.267Z,14.93
2019-05-10T07:10:39.140Z,15.10
2019-05-10T07:13:08.910Z,15.43
2019-05-10T07:15:42.177Z,15.55
2019-05-10T07:18:10.413Z,15.03
2019-05-10T07:20:43.136Z,15.35
2019-05-10T07:23:11.565Z,15.60
2019-05-10T07:25:44.016Z,15.20
2019-05-10T07:28:15.620Z,14.43
2019-05-10T07:30:44.574Z,15.20
2019-05-10T07:33:14.356Z,15.05
2019-05-10T07:35:44.125Z,14.63
2019-05-10T07:38:14.091Z,13.50
2019-05-10T07:40:43.795Z,13.70
2019-05-10T07:43:24.831Z,13.95
2019-05-10T07:45:45.007Z,14.35
2019-05-10T07:48:14.716Z,12.82
2019-05-10T07:50:49.359Z,11.97
2019-05-10T07:53:16.190Z,11.63
2019-05-10T07:55:47.838Z,11.30
2019-05-10T07:58:17.561Z,11.22
2019-05-10T08:00:47.580Z,11.53
2019-05-10T08:03:23.364Z,12.82
2019-05-10T08:05:55.116Z,8.40
2019-05-10T08:08:20.254Z,8.25
2019-05-10T08:10:50.085Z,7.95
2019-05-10T08:13:21.207Z,9.40
2019-05-10T08:15:51.565Z,8.63
2019-05-10T08:18:25.378Z,10.43
2019-05-10T08:20:57.710Z,8.20
2019-05-10T08:23:27.863Z,10.38
2019-05-10T08:25:55.597Z,9.40
2019-05-10T08:28:27.842Z,7.50
2019-05-10T08:30:58.717Z,7.25
2019-05-10T08:33:28.424Z,7.12
2019-05-10T08:36:04.959Z,6.15
2019-05-10T08:38:31.795Z,6.55
2019-05-10T08:41:02.698Z,6.08
2019-05-10T08:43:38.958Z,6.55
2019-05-10T08:46:04.810Z,8.13
2019-05-10T08:48:38.085Z,7.37
2019-05-10T08:51:07.634Z,7.12
2019-05-10T08:53:37.162Z,6.22
2019-05-10T08:56:07.662Z,6.00
2019-05-10T08:58:38.209Z,5.85
2019-05-10T09:01:20.446Z,5.95
2019-05-10T09:03:41.758Z,7.28
2019-05-10T09:06:15.886Z,5.65
2019-05-10T09:08:43.169Z,6.50
2019-05-10T09:11:13.022Z,6.90
2019-05-10T09:13:46.121Z,7.50
2019-05-10T09:16:13.981Z,6.40
2019-05-10T09:18:50.281Z,5.92
2019-05-10T09:21:15.157Z,6.70
2019-05-10T09:23:44.848Z,8.03
2019-05-10T09:26:16.415Z,7.37
2019-05-10T09:28:47.476Z,6.95
2019-05-10T09:31:24.019Z,7.50
2019-05-10T09:33:53.733Z,8.35
2019-05-10T09:36:23.127Z,9.15
2019-05-10T09:38:54.097Z,10.32
2019-05-10T09:41:27.608Z,12.43
2019-05-10T09:43:55.238Z,11.68
2019-05-10T09:46:24.869Z,7.37
2019-05-10T09:49:06.185Z,6.60
2019-05-10T09:51:30.081Z,6.90
2019-05-10T09:54:00.206Z,6.45
2019-05-10T09:56:33.056Z,7.92
2019-05-10T09:59:00.454Z,7.45
2019-05-10T10:01:30.183Z,8.58
2019-05-10T10:04:02.009Z,8.83
2019-05-10T10:06:31.174Z,6.25
2019-05-10T10:09:01.118Z,7.80
2019-05-10T10:11:32.613Z,7.35
2019-05-10T10:14:02.451Z,7.78
2019-05-10T10:16:33.135Z,8.78
2019-05-10T10:19:02.781Z,7.50
2019-05-10T10:21:35.457Z,7.12
2019-05-10T10:24:12.673Z,6.95
2019-05-10T10:26:37.934Z,6.95
2019-05-10T10:29:07.785Z,6.80
2019-05-10T10:31:50.049Z,6.78
2019-05-10T10:34:08.746Z,6.92
2019-05-10T10:36:42.795Z,6.90
2019-05-10T10:39:09.821Z,7.05
2019-05-10T10:41:39.446Z,6.25
2019-05-10T10:44:09.262Z,6.65
2019-05-10T10:46:38.911Z,6.75
2019-05-10T10:49:10.539Z,7.10
2019-05-10T10:51:40.022Z,6.92
2019-05-10T10:54:09.755Z,7.50
2019-05-10T10:56:39.440Z,9.68
2019-05-10T10:59:09.056Z,8.68
2019-05-10T11:01:49.556Z,8.63
2019-05-10T11:04:10.086Z,8.55
2019-05-10T11:06:39.745Z,7.58
2019-05-10T11:09:09.634Z,7.05
2019-05-10T11:11:44.301Z,7.40
2019-05-10T11:14:11.170Z,8.20
2019-05-10T11:16:41.409Z,8.93
2019-05-10T11:19:15.374Z,7.78
2019-05-10T11:21:42.506Z,7.10
2019-05-10T11:24:17.911Z,7.80
2019-05-10T11:26:44.928Z,7.75
2019-05-10T11:29:25.418Z,7.10
2019-05-10T11:31:48.738Z,7.28
2019-05-10T11:34:17.383Z,7.78
2019-05-10T11:36:48.342Z,7.72
2019-05-10T11:39:26.218Z,8.05
2019-05-10T11:41:52.795Z,7.75
2019-05-10T11:44:22.100Z,7.60
2019-05-10T11:46:52.430Z,8.45
2019-05-10T11:49:22.278Z,7.17
2019-05-10T11:51:54.722Z,7.37
2019-05-10T11:54:23.451Z,6.50
2019-05-10T11:56:58.574Z,6.30
2019-05-10T11:59:33.760Z,5.37
2019-05-10T12:02:08.915Z,4.80
2019-05-10T12:04:39.279Z,4.45
2019-05-10T12:07:09.803Z,8.20
2019-05-10T12:09:37.501Z,9.68
2019-05-10T12:12:07.917Z,2.85
2019-05-10T12:14:37.674Z,2.95
2019-05-10T12:17:07.471Z,2.37
2019-05-10T12:19:47.694Z,1.80
2019-05-10T12:22:08.578Z,1.80
2019-05-10T12:26:05.677Z,1.77
2019-05-10T12:27:22.014Z,2.20
2019-05-10T12:29:41.108Z,1.37
2019-05-10T12:32:10.846Z,1.80
2019-05-10T12:34:45.974Z,2.92
2019-05-10T12:37:13.123Z,2.47
2019-05-10T12:39:42.883Z,2.00
2019-05-10T12:42:14.301Z,2.20
2019-05-10T12:44:47.933Z,2.00
2019-05-10T12:47:15.733Z,1.98
2019-05-10T12:49:45.474Z,1.42
2019-05-10T12:52:16.249Z,2.00
2019-05-10T12:54:46.018Z,1.98
2019-05-10T12:57:15.721Z,2.10
2019-05-10T12:59:45.414Z,1.57
2019-05-10T13:02:15.129Z,2.85
2019-05-10T13:04:47.130Z,2.05
2019-05-10T13:07:16.278Z,2.22
2019-05-10T13:09:49.618Z,2.60
2019-05-10T13:12:17.418Z,2.70
2019-05-10T13:14:52.403Z,2.40
2019-05-10T13:17:18.523Z,2.47
2019-05-10T13:19:52.736Z,2.42
2019-05-10T13:22:19.723Z,2.42
2019-05-10T13:24:49.458Z,1.80
2019-05-10T13:27:19.279Z,1.60
2019-05-10T13:29:53.284Z,1.65
2019-05-10T13:32:22.313Z,1.50
2019-05-10T13:34:52.301Z,1.20
2019-05-10T13:37:25.331Z,1.22
2019-05-10T13:39:58.502Z,1.95
2019-05-10T13:42:26.943Z,1.40
2019-05-10T13:44:56.585Z,1.20
2019-05-10T13:47:26.298Z,1.17
2019-05-10T13:49:56.011Z,1.40
2019-05-10T13:52:29.885Z,1.40
2019-05-10T13:54:57.982Z,1.45
2019-05-10T13:57:27.693Z,2.20
2019-05-10T13:59:57.576Z,1.30
2019-05-10T14:02:32.581Z,1.40
2019-05-10T14:04:59.722Z,1.60
2019-05-10T14:07:29.444Z,1.30
2019-05-10T14:09:59.108Z,1.40
2019-05-10T14:12:28.931Z,1.52
2019-05-10T14:15:02.966Z,1.20
2019-05-10T14:17:30.069Z,1.35
2019-05-10T14:19:59.828Z,1.47
2019-05-10T14:22:29.678Z,1.40
2019-05-10T14:24:59.366Z,1.45
2019-05-10T14:27:29.862Z,1.27
2019-05-10T14:30:00.525Z,8.05
2019-05-10T14:32:30.343Z,19.10
2019-05-10T14:34:59.957Z,3.20
2019-05-10T14:37:29.636Z,1.82
2019-05-10T14:39:59.468Z,1.60
2019-05-10T14:42:31.522Z,1.12
2019-05-10T14:45:00.591Z,1.57
2019-05-10T14:47:30.401Z,1.77
2019-05-10T14:50:00.074Z,1.70
2019-05-10T14:52:30.800Z,1.42
2019-05-10T14:55:00.496Z,1.35
2019-05-10T14:57:30.161Z,1.30
2019-05-10T14:59:59.824Z,1.40
2019-05-10T15:02:29.537Z,1.25
2019-05-10T15:05:01.354Z,1.40
2019-05-10T15:07:30.530Z,1.30
2019-05-10T15:10:02.348Z,1.35
2019-05-10T15:12:31.673Z,1.62
2019-05-10T15:15:01.412Z,2.00
2019-05-10T15:17:31.194Z,1.40
2019-05-10T15:20:01.279Z,1.60
2019-05-10T15:22:31.134Z,1.27
2019-05-10T15:25:00.891Z,1.15
2019-05-10T15:27:31.608Z,1.50
2019-05-10T15:30:05.391Z,1.55
2019-05-10T15:32:33.144Z,1.60
2019-05-10T15:35:07.077Z,1.60
2019-05-10T15:37:34.301Z,1.98
2019-05-10T15:40:07.730Z,1.85
2019-05-10T15:42:38.432Z,1.87
2019-05-10T15:45:12.386Z,1.60
2019-05-10T15:47:50.882Z,2.90
2019-05-10T15:50:12.269Z,1.70
2019-05-10T15:52:46.274Z,2.52
2019-05-10T15:55:16.427Z,1.92
2019-05-10T15:57:44.974Z,1.80
2019-05-10T16:00:15.399Z,2.10
2019-05-10T16:02:45.399Z,2.00
2019-05-10T16:05:23.923Z,1.80
2019-05-10T16:07:51.582Z,2.17
2019-05-10T16:10:18.547Z,2.00
2019-05-10T16:12:48.520Z,2.20
2019-05-10T16:15:20.081Z,2.20
2019-05-10T16:17:53.676Z,2.00
2019-05-10T16:20:20.982Z,1.90
2019-05-10T16:22:50.790Z,2.30
2019-05-10T16:25:20.787Z,2.00
2019-05-10T16:27:50.593Z,2.15
2019-05-10T16:30:20.464Z,2.70
2019-05-10T16:32:50.229Z,2.15
2019-05-10T16:35:22.032Z,2.58
2019-05-10T16:37:51.541Z,2.10
2019-05-10T16:40:21.309Z,2.75
2019-05-10T16:42:51.020Z,2.05
2019-05-10T16:45:20.846Z,2.55
2019-05-10T16:47:50.536Z,2.77
2019-05-10T16:50:20.589Z,2.37
2019-05-10T16:52:50.520Z,2.40
2019-05-10T16:55:20.336Z,2.72
2019-05-10T16:57:50.088Z,2.65
2019-05-10T17:00:20.405Z,2.52
2019-05-10T17:02:50.237Z,2.70
2019-05-10T17:05:20.075Z,2.80
2019-05-10T17:07:53.700Z,2.10
2019-05-10T17:10:21.215Z,2.33
2019-05-10T17:12:50.950Z,1.95
2019-05-10T17:15:20.836Z,2.00
2019-05-10T17:17:50.648Z,2.00
2019-05-10T17:20:20.994Z,2.75
2019-05-10T17:22:50.858Z,2.62
2019-05-10T17:25:22.576Z,2.90
2019-05-10T17:27:57.753Z,4.15
2019-05-10T17:30:27.908Z,2.17
2019-05-10T17:32:57.662Z,2.37
2019-05-10T17:35:26.835Z,2.52
2019-05-10T17:37:56.813Z,2.30
2019-05-10T17:40:26.710Z,2.15
2019-05-10T17:42:56.486Z,2.62
2019-05-10T17:45:26.485Z,2.70
2019-05-10T17:47:56.231Z,2.45
2019-05-10T17:50:26.052Z,2.67
2019-05-10T17:52:55.736Z,2.22
2019-05-10T17:55:25.702Z,2.30
2019-05-10T17:57:56.632Z,2.22
2019-05-10T18:00:26.581Z,2.80
2019-05-10T18:02:56.381Z,2.80
2019-05-10T18:05:26.156Z,2.10
2019-05-10T18:07:56.083Z,2.50
2019-05-10T18:10:25.823Z,2.77
2019-05-10T18:12:57.309Z,2.80
2019-05-10T18:15:27.691Z,2.77
2019-05-10T18:18:02.545Z,3.25
2019-05-10T18:20:41.045Z,2.90
2019-05-10T18:23:01.265Z,2.72
2019-05-10T18:25:31.029Z,2.55
2019-05-10T18:28:00.704Z,2.52
2019-05-10T18:30:30.590Z,3.47
2019-05-10T18:33:01.386Z,3.08
2019-05-10T18:35:31.257Z,2.52
2019-05-10T18:38:01.132Z,2.55
2019-05-10T18:40:33.450Z,2.30
2019-05-10T18:43:03.881Z,2.95
2019-05-10T18:45:33.788Z,2.65
2019-05-10T18:48:03.635Z,2.50
2019-05-10T18:50:33.278Z,2.33
2019-05-10T18:53:03.120Z,2.50
2019-05-10T18:55:32.986Z,3.02
2019-05-10T18:58:02.962Z,2.20
2019-05-10T19:00:32.781Z,2.20
2019-05-10T19:03:02.731Z,2.20
2019-05-10T19:05:33.212Z,2.45
2019-05-10T19:08:05.613Z,2.50
2019-05-10T19:10:34.473Z,2.45
2019-05-10T19:13:06.323Z,2.23
2019-05-10T19:15:36.323Z,2.65
2019-05-10T19:18:06.129Z,4.50
2019-05-10T19:20:35.858Z,2.72
2019-05-10T19:23:05.732Z,2.85
2019-05-10T19:25:37.614Z,2.70
2019-05-10T19:28:06.927Z,2.80
2019-05-10T19:30:36.816Z,2.42
2019-05-10T19:33:06.643Z,3.50
2019-05-10T19:35:37.933Z,2.90
2019-05-10T19:38:07.689Z,2.70
2019-05-10T19:40:37.767Z,2.93
2019-05-10T19:43:08.553Z,2.37
2019-05-10T19:45:38.300Z,2.50
2019-05-10T19:48:07.997Z,2.58
2019-05-10T19:50:37.752Z,2.73
2019-05-10T19:53:07.454Z,3.52
2019-05-10T19:55:37.158Z,3.03
2019-05-10T19:58:07.010Z,2.57
2019-05-10T20:00:36.985Z,2.63
2019-05-10T20:03:06.909Z,2.80
2019-05-10T20:05:36.663Z,2.97
2019-05-10T20:08:06.536Z,2.40
2019-05-10T20:10:36.215Z,2.73
2019-05-10T20:13:05.899Z,3.83
2019-05-10T20:15:35.596Z,2.93
2019-05-10T20:18:05.618Z,2.90
2019-05-10T20:20:35.544Z,2.43
2019-05-10T20:23:05.235Z,3.30
2019-05-10T20:25:34.910Z,2.57
2019-05-10T20:28:06.537Z,2.90
2019-05-10T20:30:36.261Z,2.97
2019-05-10T20:33:05.933Z,3.37
2019-05-10T20:35:35.741Z,2.97
2019-05-10T20:38:05.714Z,3.00
2019-05-10T20:40:37.225Z,2.83
2019-05-10T20:43:07.158Z,2.90
2019-05-10T20:45:36.936Z,3.03
2019-05-10T20:48:06.640Z,2.73
2019-05-10T20:50:36.369Z,2.77
2019-05-10T20:53:06.138Z,2.57
2019-05-10T20:55:36.826Z,2.90
2019-05-10T20:58:06.541Z,3.03
2019-05-10T21:00:36.531Z,2.63
2019-05-10T21:03:06.229Z,2.77
2019-05-10T21:05:36.910Z,3.00
2019-05-10T21:08:16.621Z,2.37
2019-05-10T21:10:37.924Z,3.00
2019-05-10T21:13:07.705Z,2.50
2019-05-10T21:15:37.602Z,3.30
2019-05-10T21:18:07.253Z,3.40
2019-05-10T21:20:37.070Z,2.80
2019-05-10T21:23:06.796Z,3.87
2019-05-10T21:25:36.697Z,2.67
2019-05-10T21:28:06.402Z,2.87
2019-05-10T21:30:36.143Z,2.60
2019-05-10T21:33:05.913Z,2.83
2019-05-10T21:35:35.632Z,2.50
2019-05-10T21:38:05.369Z,2.83
2019-05-10T21:40:35.074Z,3.10
2019-05-10T21:43:04.870Z,3.83
2019-05-10T21:45:34.614Z,3.30
2019-05-10T21:48:04.950Z,3.00
2019-05-10T21:50:34.605Z,3.20
2019-05-10T21:53:04.889Z,2.93
2019-05-10T21:55:34.575Z,2.90
2019-05-10T21:58:04.922Z,3.83
2019-05-10T22:00:38.030Z,3.10
2019-05-10T22:03:09.331Z,2.70
2019-05-10T22:05:39.160Z,2.03
2019-05-10T22:08:08.887Z,2.30
2019-05-10T22:10:38.542Z,2.43
2019-05-10T22:13:08.236Z,2.40
2019-05-10T22:15:37.937Z,2.30
2019-05-10T22:18:07.726Z,2.10
2019-05-10T22:20:37.365Z,2.20
2019-05-10T22:23:07.079Z,2.17
2019-05-10T22:25:36.866Z,2.63
2019-05-10T22:28:06.605Z,2.40
2019-05-10T22:30:36.397Z,2.40
2019-05-10T22:33:06.140Z,2.30
2019-05-10T22:35:35.941Z,2.30
2019-05-10T22:38:05.728Z,2.33
2019-05-10T22:40:35.642Z,2.47
2019-05-10T22:43:05.473Z,2.00
2019-05-10T22:45:35.193Z,3.33
2019-05-10T22:48:04.963Z,2.23
2019-05-10T22:50:34.609Z,2.63
2019-05-10T22:53:04.924Z,1.90
2019-05-10T22:55:34.532Z,2.20
2019-05-10T22:58:04.970Z,2.13
2019-05-10T23:00:34.728Z,2.10
2019-05-10T23:03:04.885Z,2.20
2019-05-10T23:05:34.592Z,2.00
2019-05-10T23:08:04.935Z,2.17
2019-05-10T23:10:34.542Z,2.00
2019-05-10T23:13:05.019Z,2.20
2019-05-10T23:15:34.737Z,2.73
2019-05-10T23:18:04.914Z,1.83
2019-05-10T23:20:34.612Z,2.03
2019-05-10T23:23:05.281Z,1.70
2019-05-10T23:25:35.038Z,1.90
2019-05-10T23:28:05.218Z,1.90
2019-05-10T23:30:34.883Z,2.20
2019-05-10T23:33:04.981Z,1.90
2019-05-10T23:35:34.668Z,1.93
2019-05-10T23:38:04.905Z,2.00
2019-05-10T23:40:35.781Z,2.07
2019-05-10T23:43:05.925Z,2.13
2019-05-10T23:45:35.706Z,2.37
2019-05-10T23:48:06.410Z,1.90
2019-05-10T23:50:36.039Z,1.90
2019-05-10T23:53:05.749Z,2.00
2019-05-10T23:55:35.817Z,2.10
2019-05-10T23:58:06.511Z,2.00
